sensor_id;sensor_type;location;lat;lon;timestamp;temperature;humidity
2495;DHT22;1258;48.336;14.322;2023-11-22T00:02:16;7.20;99.90
2495;DHT22;1258;48.336;14.322;2023-11-22T00:04:43;7.00;99.90
2495;DHT22;1258;48.336;14.322;2023-11-22T00:07:11;6.80;99.90
2495;DHT22;1258;48.336;14.322;2023-11-22T00:09:38;6.70;99.90
2495;DHT22;1258;48.336;14.322;2023-11-22T00:12:06;6.80;99.90
2495;DHT22;1258;48.336;14.322;2023-11-22T00:14:34;6.80;99.90
2495;DHT22;1258;48.336;14.322;2023-11-22T00:17:03;6.80;99.90
2495;DHT22;1258;48.336;14.322;2023-11-22T00:19:30;6.60;99.90
2495;DHT22;1258;48.336;14.322;2023-11-22T00:21:58;6.50;99.90
2495;DHT22;1258;48.336;14.322;2023-11-22T00:24:25;6.30;99.90
2495;DHT22;1258;48.336;14.322;2023-11-22T00:26:52;6.30;99.90
2495;DHT22;1258;48.336;14.322;2023-11-22T00:29:19;6.20;99.90
2495;DHT22;1258;48.336;14.322;2023-11-22T00:31:46;6.20;99.90
2495;DHT22;1258;48.336;14.322;2023-11-22T00:34:15;6.00;99.90
2495;DHT22;1258;48.336;14.322;2023-11-22T00:36:43;6.00;99.90
2495;DHT22;1258;48.336;14.322;2023-11-22T00:39:10;5.80;99.90
2495;DHT22;1258;48.336;14.322;2023-11-22T00:41:38;5.80;99.90
2495;DHT22;1258;48.336;14.322;2023-11-22T00:44:05;5.80;99.90
2495;DHT22;1258;48.336;14.322;2023-11-22T00:46:33;5.80;99.90
2495;DHT22;1258;48.336;14.322;2023-11-22T00:49:00;5.70;99.90
2495;DHT22;1258;48.336;14.322;2023-11-22T00:51:28;5.70;99.90
2495;DHT22;1258;48.336;14.322;2023-11-22T00:53:56;5.70;99.90
2495;DHT22;1258;48.336;14.322;2023-11-22T00:56:24;5.60;99.90
2495;DHT22;1258;48.336;14.322;2023-11-22T00:58:51;5.60;99.90
2495;DHT22;1258;48.336;14.322;2023-11-22T01:01:18;5.70;99.90
2495;DHT22;1258;48.336;14.322;2023-11-22T01:03:46;5.70;99.90
2495;DHT22;1258;48.336;14.322;2023-11-22T01:06:13;5.70;99.90
2495;DHT22;1258;48.336;14.322;2023-11-22T01:08:41;5.70;99.90
2495;DHT22;1258;48.336;14.322;2023-11-22T01:11:08;5.70;99.90
2495;DHT22;1258;48.336;14.322;2023-11-22T01:13:35;5.60;99.90
2495;DHT22;1258;48.336;14.322;2023-11-22T01:16:06;5.30;99.90
2495;DHT22;1258;48.336;14.322;2023-11-22T01:18:33;5.20;99.90
2495;DHT22;1258;48.336;14.322;2023-11-22T01:21:00;5.20;99.90
2495;DHT22;1258;48.336;14.322;2023-11-22T01:23:27;5.20;99.90
2495;DHT22;1258;48.336;14.322;2023-11-22T01:25:55;5.10;99.90
2495;DHT22;1258;48.336;14.322;2023-11-22T01:28:22;5.10;99.90
2495;DHT22;1258;48.336;14.322;2023-11-22T01:30:49;5.00;99.90
2495;DHT22;1258;48.336;14.322;2023-11-22T01:33:16;5.00;99.90
2495;DHT22;1258;48.336;14.322;2023-11-22T01:35:43;4.90;99.90
2495;DHT22;1258;48.336;14.322;2023-11-22T01:38:10;4.90;99.90
2495;DHT22;1258;48.336;14.322;2023-11-22T01:40:43;4.90;99.90
2495;DHT22;1258;48.336;14.322;2023-11-22T01:43:14;4.70;99.90
2495;DHT22;1258;48.336;14.322;2023-11-22T01:45:42;4.60;99.90
2495;DHT22;1258;48.336;14.322;2023-11-22T01:48:10;4.60;99.90
2495;DHT22;1258;48.336;14.322;2023-11-22T01:50:37;4.60;99.90
2495;DHT22;1258;48.336;14.322;2023-11-22T01:53:06;4.60;99.90
2495;DHT22;1258;48.336;14.322;2023-11-22T01:55:33;4.60;99.90
2495;DHT22;1258;48.336;14.322;2023-11-22T01:58:01;4.50;99.90
2495;DHT22;1258;48.336;14.322;2023-11-22T02:00:32;4.40;99.90
2495;DHT22;1258;48.336;14.322;2023-11-22T02:03:02;4.40;99.90
2495;DHT22;1258;48.336;14.322;2023-11-22T02:05:29;4.30;99.90
2495;DHT22;1258;48.336;14.322;2023-11-22T02:07:57;4.30;99.90
2495;DHT22;1258;48.336;14.322;2023-11-22T02:10:24;4.20;99.90
2495;DHT22;1258;48.336;14.322;2023-11-22T02:12:51;4.10;99.90
2495;DHT22;1258;48.336;14.322;2023-11-22T02:15:18;4.10;99.90
2495;DHT22;1258;48.336;14.322;2023-11-22T02:17:46;4.10;99.90
2495;DHT22;1258;48.336;14.322;2023-11-22T02:20:13;4.00;99.90
2495;DHT22;1258;48.336;14.322;2023-11-22T02:22:44;3.90;99.90
2495;DHT22;1258;48.336;14.322;2023-11-22T02:25:13;3.80;99.90
2495;DHT22;1258;48.336;14.322;2023-11-22T02:27:41;3.80;99.90
2495;DHT22;1258;48.336;14.322;2023-11-22T02:30:09;3.70;99.90
2495;DHT22;1258;48.336;14.322;2023-11-22T02:32:36;3.70;99.90
2495;DHT22;1258;48.336;14.322;2023-11-22T02:35:05;3.60;99.90
2495;DHT22;1258;48.336;14.322;2023-11-22T02:37:33;3.60;99.90
2495;DHT22;1258;48.336;14.322;2023-11-22T02:40:05;3.60;99.90
2495;DHT22;1258;48.336;14.322;2023-11-22T02:42:34;3.60;99.90
2495;DHT22;1258;48.336;14.322;2023-11-22T02:45:01;3.60;99.90
2495;DHT22;1258;48.336;14.322;2023-11-22T02:47:28;3.60;99.90
2495;DHT22;1258;48.336;14.322;2023-11-22T02:49:56;3.60;99.90
2495;DHT22;1258;48.336;14.322;2023-11-22T02:52:23;3.50;99.90
2495;DHT22;1258;48.336;14.322;2023-11-22T02:54:52;3.60;99.90
2495;DHT22;1258;48.336;14.322;2023-11-22T02:57:19;3.60;99.90
2495;DHT22;1258;48.336;14.322;2023-11-22T02:59:47;3.50;99.90
2495;DHT22;1258;48.336;14.322;2023-11-22T03:02:14;3.60;99.90
2495;DHT22;1258;48.336;14.322;2023-11-22T03:04:42;3.50;99.90
2495;DHT22;1258;48.336;14.322;2023-11-22T03:07:09;3.50;99.90
2495;DHT22;1258;48.336;14.322;2023-11-22T03:09:36;3.40;99.90
2495;DHT22;1258;48.336;14.322;2023-11-22T03:12:03;3.40;99.90
2495;DHT22;1258;48.336;14.322;2023-11-22T03:14:30;3.40;99.90
2495;DHT22;1258;48.336;14.322;2023-11-22T03:16:59;3.40;99.90
2495;DHT22;1258;48.336;14.322;2023-11-22T03:19:25;3.40;99.90
2495;DHT22;1258;48.336;14.322;2023-11-22T03:21:52;3.30;99.90
2495;DHT22;1258;48.336;14.322;2023-11-22T03:24:21;3.30;99.90
2495;DHT22;1258;48.336;14.322;2023-11-22T03:26:48;3.20;99.90
2495;DHT22;1258;48.336;14.322;2023-11-22T03:29:15;3.20;99.90
2495;DHT22;1258;48.336;14.322;2023-11-22T03:31:43;3.20;99.90
2495;DHT22;1258;48.336;14.322;2023-11-22T03:34:14;3.20;99.90
2495;DHT22;1258;48.336;14.322;2023-11-22T03:36:41;3.20;99.90
2495;DHT22;1258;48.336;14.322;2023-11-22T03:39:07;3.10;99.90
2495;DHT22;1258;48.336;14.322;2023-11-22T03:41:35;3.20;99.90
2495;DHT22;1258;48.336;14.322;2023-11-22T03:44:04;3.20;99.90
2495;DHT22;1258;48.336;14.322;2023-11-22T03:46:34;3.30;99.90
2495;DHT22;1258;48.336;14.322;2023-11-22T03:49:01;3.20;99.90
2495;DHT22;1258;48.336;14.322;2023-11-22T03:51:29;3.20;99.90
2495;DHT22;1258;48.336;14.322;2023-11-22T03:53:56;3.10;99.90
2495;DHT22;1258;48.336;14.322;2023-11-22T03:56:23;3.00;99.90
2495;DHT22;1258;48.336;14.322;2023-11-22T03:58:50;3.10;99.90
2495;DHT22;1258;48.336;14.322;2023-11-22T04:01:17;3.10;99.90
2495;DHT22;1258;48.336;14.322;2023-11-22T04:03:46;3.00;99.90
2495;DHT22;1258;48.336;14.322;2023-11-22T04:06:14;3.00;99.90
2495;DHT22;1258;48.336;14.322;2023-11-22T04:08:42;2.90;99.90
2495;DHT22;1258;48.336;14.322;2023-11-22T04:11:11;3.10;99.90
2495;DHT22;1258;48.336;14.322;2023-11-22T04:13:38;3.00;99.90
2495;DHT22;1258;48.336;14.322;2023-11-22T04:16:06;3.00;99.90
2495;DHT22;1258;48.336;14.322;2023-11-22T04:18:34;2.80;99.90
2495;DHT22;1258;48.336;14.322;2023-11-22T04:21:01;2.80;99.90
2495;DHT22;1258;48.336;14.322;2023-11-22T04:23:30;2.70;99.90
2495;DHT22;1258;48.336;14.322;2023-11-22T04:25:59;2.70;99.90
2495;DHT22;1258;48.336;14.322;2023-11-22T04:28:27;2.70;99.90
2495;DHT22;1258;48.336;14.322;2023-11-22T04:30:55;2.80;99.90
2495;DHT22;1258;48.336;14.322;2023-11-22T04:33:23;2.70;99.90
2495;DHT22;1258;48.336;14.322;2023-11-22T04:35:50;2.80;99.90
2495;DHT22;1258;48.336;14.322;2023-11-22T04:38:17;2.80;99.90
2495;DHT22;1258;48.336;14.322;2023-11-22T04:40:44;2.80;99.90
2495;DHT22;1258;48.336;14.322;2023-11-22T04:43:13;2.80;99.90
2495;DHT22;1258;48.336;14.322;2023-11-22T04:45:40;2.70;99.90
2495;DHT22;1258;48.336;14.322;2023-11-22T04:48:06;2.80;99.90
2495;DHT22;1258;48.336;14.322;2023-11-22T04:50:34;2.70;99.90
2495;DHT22;1258;48.336;14.322;2023-11-22T04:53:01;2.70;99.90
2495;DHT22;1258;48.336;14.322;2023-11-22T04:55:28;2.70;99.90
2495;DHT22;1258;48.336;14.322;2023-11-22T04:57:55;2.80;99.90
2495;DHT22;1258;48.336;14.322;2023-11-22T05:00:23;2.80;99.90
2495;DHT22;1258;48.336;14.322;2023-11-22T05:02:50;2.80;99.90
2495;DHT22;1258;48.336;14.322;2023-11-22T05:05:17;2.70;99.90
2495;DHT22;1258;48.336;14.322;2023-11-22T05:07:44;2.80;99.90
2495;DHT22;1258;48.336;14.322;2023-11-22T05:10:11;2.80;99.90
2495;DHT22;1258;48.336;14.322;2023-11-22T05:12:38;2.70;99.90
2495;DHT22;1258;48.336;14.322;2023-11-22T05:15:06;2.80;99.90
2495;DHT22;1258;48.336;14.322;2023-11-22T05:17:34;2.80;99.90
2495;DHT22;1258;48.336;14.322;2023-11-22T05:20:01;2.80;99.90
2495;DHT22;1258;48.336;14.322;2023-11-22T05:22:28;3.00;99.90
2495;DHT22;1258;48.336;14.322;2023-11-22T05:24:55;2.90;99.90
2495;DHT22;1258;48.336;14.322;2023-11-22T05:27:22;2.80;99.90
2495;DHT22;1258;48.336;14.322;2023-11-22T05:29:49;2.80;99.90
2495;DHT22;1258;48.336;14.322;2023-11-22T05:32:16;2.70;99.90
2495;DHT22;1258;48.336;14.322;2023-11-22T05:34:44;2.70;99.90
2495;DHT22;1258;48.336;14.322;2023-11-22T05:37:11;2.90;99.90
2495;DHT22;1258;48.336;14.322;2023-11-22T05:39:37;2.70;99.90
2495;DHT22;1258;48.336;14.322;2023-11-22T05:42:04;2.60;99.90
2495;DHT22;1258;48.336;14.322;2023-11-22T05:44:32;2.60;99.90
2495;DHT22;1258;48.336;14.322;2023-11-22T05:46:59;2.60;99.90
2495;DHT22;1258;48.336;14.322;2023-11-22T05:49:26;2.70;99.90
2495;DHT22;1258;48.336;14.322;2023-11-22T05:51:55;2.70;99.90
2495;DHT22;1258;48.336;14.322;2023-11-22T05:54:22;2.70;99.90
2495;DHT22;1258;48.336;14.322;2023-11-22T05:56:49;2.70;99.90
2495;DHT22;1258;48.336;14.322;2023-11-22T05:59:15;2.70;99.90
2495;DHT22;1258;48.336;14.322;2023-11-22T06:01:42;2.60;99.90
2495;DHT22;1258;48.336;14.322;2023-11-22T06:04:09;2.50;99.90
2495;DHT22;1258;48.336;14.322;2023-11-22T06:06:36;2.50;99.90
2495;DHT22;1258;48.336;14.322;2023-11-22T06:09:05;2.60;99.90
2495;DHT22;1258;48.336;14.322;2023-11-22T06:11:32;2.40;99.90
2495;DHT22;1258;48.336;14.322;2023-11-22T06:14:00;2.30;99.90
2495;DHT22;1258;48.336;14.322;2023-11-22T06:16:28;2.40;99.90
2495;DHT22;1258;48.336;14.322;2023-11-22T06:18:55;2.40;99.90
2495;DHT22;1258;48.336;14.322;2023-11-22T06:21:21;2.30;99.90
2495;DHT22;1258;48.336;14.322;2023-11-22T06:23:52;2.30;99.90
2495;DHT22;1258;48.336;14.322;2023-11-22T06:26:22;2.30;99.90
2495;DHT22;1258;48.336;14.322;2023-11-22T06:28:49;2.30;99.90
2495;DHT22;1258;48.336;14.322;2023-11-22T06:31:16;2.30;99.90
2495;DHT22;1258;48.336;14.322;2023-11-22T06:33:42;2.30;99.90
2495;DHT22;1258;48.336;14.322;2023-11-22T06:36:09;2.20;99.90
2495;DHT22;1258;48.336;14.322;2023-11-22T06:38:38;2.20;99.90
2495;DHT22;1258;48.336;14.322;2023-11-22T06:41:05;2.20;99.90
2495;DHT22;1258;48.336;14.322;2023-11-22T06:43:34;2.30;99.90
2495;DHT22;1258;48.336;14.322;2023-11-22T06:46:01;2.30;99.90
2495;DHT22;1258;48.336;14.322;2023-11-22T06:48:31;2.30;99.90
2495;DHT22;1258;48.336;14.322;2023-11-22T06:50:59;2.30;99.90
2495;DHT22;1258;48.336;14.322;2023-11-22T06:53:26;2.30;99.90
2495;DHT22;1258;48.336;14.322;2023-11-22T06:55:53;2.30;99.90
2495;DHT22;1258;48.336;14.322;2023-11-22T06:58:20;2.30;99.90
2495;DHT22;1258;48.336;14.322;2023-11-22T07:00:48;2.20;99.90
2495;DHT22;1258;48.336;14.322;2023-11-22T07:03:15;2.20;99.90
2495;DHT22;1258;48.336;14.322;2023-11-22T07:05:42;2.20;99.90
2495;DHT22;1258;48.336;14.322;2023-11-22T07:08:09;2.20;99.90
2495;DHT22;1258;48.336;14.322;2023-11-22T07:10:36;2.20;99.90
2495;DHT22;1258;48.336;14.322;2023-11-22T07:13:03;2.20;99.90
2495;DHT22;1258;48.336;14.322;2023-11-22T07:15:30;2.10;99.90
2495;DHT22;1258;48.336;14.322;2023-11-22T07:17:59;2.20;99.90
2495;DHT22;1258;48.336;14.322;2023-11-22T07:20:26;2.10;99.90
2495;DHT22;1258;48.336;14.322;2023-11-22T07:22:52;2.10;99.90
2495;DHT22;1258;48.336;14.322;2023-11-22T07:25:23;2.10;99.90
2495;DHT22;1258;48.336;14.322;2023-11-22T07:27:51;2.10;99.90
2495;DHT22;1258;48.336;14.322;2023-11-22T07:30:19;2.10;99.90
2495;DHT22;1258;48.336;14.322;2023-11-22T07:32:49;2.10;99.90
2495;DHT22;1258;48.336;14.322;2023-11-22T07:35:17;2.10;99.90
2495;DHT22;1258;48.336;14.322;2023-11-22T07:37:45;2.20;99.90
2495;DHT22;1258;48.336;14.322;2023-11-22T07:40:13;2.20;99.90
2495;DHT22;1258;48.336;14.322;2023-11-22T07:42:40;2.20;99.90
2495;DHT22;1258;48.336;14.322;2023-11-22T07:45:08;2.20;99.90
2495;DHT22;1258;48.336;14.322;2023-11-22T07:47:37;2.20;99.90
2495;DHT22;1258;48.336;14.322;2023-11-22T07:50:07;2.20;99.90
2495;DHT22;1258;48.336;14.322;2023-11-22T07:52:35;2.30;99.90
2495;DHT22;1258;48.336;14.322;2023-11-22T07:55:03;2.30;99.90
2495;DHT22;1258;48.336;14.322;2023-11-22T07:57:33;2.20;99.90
2495;DHT22;1258;48.336;14.322;2023-11-22T08:00:00;2.20;99.90
2495;DHT22;1258;48.336;14.322;2023-11-22T08:02:32;2.30;99.90
2495;DHT22;1258;48.336;14.322;2023-11-22T08:04:59;2.30;99.90
2495;DHT22;1258;48.336;14.322;2023-11-22T08:07:29;2.10;99.90
2495;DHT22;1258;48.336;14.322;2023-11-22T08:09:59;2.10;99.90
2495;DHT22;1258;48.336;14.322;2023-11-22T08:12:35;2.10;99.90
2495;DHT22;1258;48.336;14.322;2023-11-22T08:15:03;2.20;99.90
2495;DHT22;1258;48.336;14.322;2023-11-22T08:17:31;2.20;99.90
2495;DHT22;1258;48.336;14.322;2023-11-22T08:19:58;2.20;99.90
2495;DHT22;1258;48.336;14.322;2023-11-22T08:22:26;2.10;99.90
2495;DHT22;1258;48.336;14.322;2023-11-22T08:24:54;2.00;99.90
2495;DHT22;1258;48.336;14.322;2023-11-22T08:27:24;2.00;99.90
2495;DHT22;1258;48.336;14.322;2023-11-22T08:29:51;2.00;99.90
2495;DHT22;1258;48.336;14.322;2023-11-22T08:32:18;1.80;99.90
2495;DHT22;1258;48.336;14.322;2023-11-22T08:34:49;1.80;99.90
2495;DHT22;1258;48.336;14.322;2023-11-22T08:37:15;1.80;99.90
2495;DHT22;1258;48.336;14.322;2023-11-22T08:39:42;1.80;99.90
2495;DHT22;1258;48.336;14.322;2023-11-22T08:42:09;1.80;99.90
2495;DHT22;1258;48.336;14.322;2023-11-22T08:44:38;1.70;99.90
2495;DHT22;1258;48.336;14.322;2023-11-22T08:47:05;1.70;99.90
2495;DHT22;1258;48.336;14.322;2023-11-22T08:49:34;1.70;99.90
2495;DHT22;1258;48.336;14.322;2023-11-22T08:52:01;1.80;99.90
2495;DHT22;1258;48.336;14.322;2023-11-22T08:54:28;1.80;99.90
2495;DHT22;1258;48.336;14.322;2023-11-22T08:56:55;1.70;99.90
2495;DHT22;1258;48.336;14.322;2023-11-22T08:59:22;1.60;99.90
2495;DHT22;1258;48.336;14.322;2023-11-22T09:01:51;1.60;99.90
2495;DHT22;1258;48.336;14.322;2023-11-22T09:04:18;1.60;99.90
2495;DHT22;1258;48.336;14.322;2023-11-22T09:06:45;1.60;99.90
2495;DHT22;1258;48.336;14.322;2023-11-22T09:09:13;1.50;99.90
2495;DHT22;1258;48.336;14.322;2023-11-22T09:11:41;1.50;99.90
2495;DHT22;1258;48.336;14.322;2023-11-22T09:14:07;1.40;99.90
2495;DHT22;1258;48.336;14.322;2023-11-22T09:16:36;1.50;99.90
2495;DHT22;1258;48.336;14.322;2023-11-22T09:19:05;1.60;99.90
2495;DHT22;1258;48.336;14.322;2023-11-22T09:21:33;1.60;99.90
2495;DHT22;1258;48.336;14.322;2023-11-22T09:24:00;1.60;99.90
2495;DHT22;1258;48.336;14.322;2023-11-22T09:26:28;1.70;99.90
2495;DHT22;1258;48.336;14.322;2023-11-22T09:28:55;1.70;99.90
2495;DHT22;1258;48.336;14.322;2023-11-22T09:31:22;1.70;99.90
2495;DHT22;1258;48.336;14.322;2023-11-22T09:33:49;1.80;99.90
2495;DHT22;1258;48.336;14.322;2023-11-22T09:36:18;1.80;99.90
2495;DHT22;1258;48.336;14.322;2023-11-22T09:38:44;1.80;99.90
2495;DHT22;1258;48.336;14.322;2023-11-22T09:41:12;1.80;99.90
2495;DHT22;1258;48.336;14.322;2023-11-22T09:43:41;1.70;99.90
2495;DHT22;1258;48.336;14.322;2023-11-22T09:46:09;1.70;99.90
2495;DHT22;1258;48.336;14.322;2023-11-22T09:48:39;1.90;99.90
2495;DHT22;1258;48.336;14.322;2023-11-22T09:51:12;1.90;99.90
2495;DHT22;1258;48.336;14.322;2023-11-22T09:53:51;1.90;99.90
2495;DHT22;1258;48.336;14.322;2023-11-22T09:56:19;1.90;99.90
2495;DHT22;1258;48.336;14.322;2023-11-22T09:58:47;2.00;99.90
2495;DHT22;1258;48.336;14.322;2023-11-22T10:01:17;2.10;99.90
2495;DHT22;1258;48.336;14.322;2023-11-22T10:03:44;2.10;99.90
2495;DHT22;1258;48.336;14.322;2023-11-22T10:06:11;2.10;99.90
2495;DHT22;1258;48.336;14.322;2023-11-22T10:08:40;2.20;99.90
2495;DHT22;1258;48.336;14.322;2023-11-22T10:11:09;2.10;99.90
2495;DHT22;1258;48.336;14.322;2023-11-22T10:13:35;2.00;99.90
2495;DHT22;1258;48.336;14.322;2023-11-22T10:16:09;2.10;99.90
2495;DHT22;1258;48.336;14.322;2023-11-22T10:18:40;2.10;99.90
2495;DHT22;1258;48.336;14.322;2023-11-22T10:21:19;2.10;99.90
2495;DHT22;1258;48.336;14.322;2023-11-22T10:23:46;2.20;99.90
2495;DHT22;1258;48.336;14.322;2023-11-22T10:26:15;2.10;99.90
2495;DHT22;1258;48.336;14.322;2023-11-22T10:28:43;2.30;99.90
2495;DHT22;1258;48.336;14.322;2023-11-22T10:31:10;2.30;99.90
2495;DHT22;1258;48.336;14.322;2023-11-22T10:33:39;2.30;99.90
2495;DHT22;1258;48.336;14.322;2023-11-22T10:36:07;2.40;99.90
2495;DHT22;1258;48.336;14.322;2023-11-22T10:38:35;2.50;99.90
2495;DHT22;1258;48.336;14.322;2023-11-22T10:41:04;2.50;99.90
2495;DHT22;1258;48.336;14.322;2023-11-22T10:43:33;2.40;99.90
2495;DHT22;1258;48.336;14.322;2023-11-22T10:46:02;2.10;99.90
2495;DHT22;1258;48.336;14.322;2023-11-22T10:48:30;2.10;99.90
2495;DHT22;1258;48.336;14.322;2023-11-22T10:51:01;2.30;99.90
2495;DHT22;1258;48.336;14.322;2023-11-22T10:53:32;2.40;99.90
2495;DHT22;1258;48.336;14.322;2023-11-22T10:56:07;2.40;99.90
2495;DHT22;1258;48.336;14.322;2023-11-22T10:58:45;2.50;99.90
2495;DHT22;1258;48.336;14.322;2023-11-22T11:01:14;2.40;99.90
2495;DHT22;1258;48.336;14.322;2023-11-22T11:03:46;2.40;99.90
2495;DHT22;1258;48.336;14.322;2023-11-22T11:06:22;2.60;99.90
2495;DHT22;1258;48.336;14.322;2023-11-22T11:08:54;2.70;99.90
2495;DHT22;1258;48.336;14.322;2023-11-22T11:11:22;2.70;99.90
2495;DHT22;1258;48.336;14.322;2023-11-22T11:13:51;2.90;99.90
2495;DHT22;1258;48.336;14.322;2023-11-22T11:16:19;2.90;99.90
2495;DHT22;1258;48.336;14.322;2023-11-22T11:18:47;2.90;99.90
2495;DHT22;1258;48.336;14.322;2023-11-22T11:21:15;3.00;99.90
2495;DHT22;1258;48.336;14.322;2023-11-22T11:23:43;3.10;99.90
2495;DHT22;1258;48.336;14.322;2023-11-22T11:26:15;3.10;99.90
2495;DHT22;1258;48.336;14.322;2023-11-22T11:28:44;3.30;99.90
2495;DHT22;1258;48.336;14.322;2023-11-22T11:31:14;3.20;99.90
2495;DHT22;1258;48.336;14.322;2023-11-22T11:33:56;3.00;99.90
2495;DHT22;1258;48.336;14.322;2023-11-22T11:36:26;2.90;99.90
2495;DHT22;1258;48.336;14.322;2023-11-22T11:38:54;2.90;99.90
2495;DHT22;1258;48.336;14.322;2023-11-22T11:41:25;2.90;99.90
2495;DHT22;1258;48.336;14.322;2023-11-22T11:43:53;3.10;99.90
2495;DHT22;1258;48.336;14.322;2023-11-22T11:46:22;3.10;99.90
2495;DHT22;1258;48.336;14.322;2023-11-22T11:48:52;3.10;99.90
2495;DHT22;1258;48.336;14.322;2023-11-22T11:51:21;3.10;99.90
2495;DHT22;1258;48.336;14.322;2023-11-22T11:53:48;3.00;99.90
2495;DHT22;1258;48.336;14.322;2023-11-22T11:56:16;3.00;99.90
2495;DHT22;1258;48.336;14.322;2023-11-22T11:58:43;3.10;99.90
2495;DHT22;1258;48.336;14.322;2023-11-22T12:01:12;3.00;99.90
2495;DHT22;1258;48.336;14.322;2023-11-22T12:03:40;3.00;99.90
2495;DHT22;1258;48.336;14.322;2023-11-22T12:06:07;3.00;99.90
2495;DHT22;1258;48.336;14.322;2023-11-22T12:08:34;2.90;99.90
2495;DHT22;1258;48.336;14.322;2023-11-22T12:11:02;3.00;99.90
2495;DHT22;1258;48.336;14.322;2023-11-22T12:13:29;3.00;99.90
2495;DHT22;1258;48.336;14.322;2023-11-22T12:15:57;3.10;99.90
2495;DHT22;1258;48.336;14.322;2023-11-22T12:18:24;2.90;99.90
2495;DHT22;1258;48.336;14.322;2023-11-22T12:20:55;2.80;99.90
2495;DHT22;1258;48.336;14.322;2023-11-22T12:23:23;2.90;99.90
2495;DHT22;1258;48.336;14.322;2023-11-22T12:25:54;3.00;99.90
2495;DHT22;1258;48.336;14.322;2023-11-22T12:28:23;3.30;99.90
2495;DHT22;1258;48.336;14.322;2023-11-22T12:30:50;3.30;99.90
2495;DHT22;1258;48.336;14.322;2023-11-22T12:33:17;3.20;99.90
2495;DHT22;1258;48.336;14.322;2023-11-22T12:35:45;3.30;99.90
2495;DHT22;1258;48.336;14.322;2023-11-22T12:38:13;3.30;99.90
2495;DHT22;1258;48.336;14.322;2023-11-22T12:40:43;3.20;99.90
2495;DHT22;1258;48.336;14.322;2023-11-22T12:43:12;3.20;99.90
2495;DHT22;1258;48.336;14.322;2023-11-22T12:45:40;3.10;99.90
2495;DHT22;1258;48.336;14.322;2023-11-22T12:48:21;3.00;99.90
2495;DHT22;1258;48.336;14.322;2023-11-22T12:50:49;2.90;99.90
2495;DHT22;1258;48.336;14.322;2023-11-22T12:53:17;2.90;99.90
2495;DHT22;1258;48.336;14.322;2023-11-22T12:55:48;2.90;99.90
2495;DHT22;1258;48.336;14.322;2023-11-22T12:58:15;3.00;99.90
2495;DHT22;1258;48.336;14.322;2023-11-22T13:00:46;3.00;99.90
2495;DHT22;1258;48.336;14.322;2023-11-22T13:03:14;2.90;99.90
2495;DHT22;1258;48.336;14.322;2023-11-22T13:05:43;3.20;99.90
2495;DHT22;1258;48.336;14.322;2023-11-22T13:08:10;2.90;99.90
2495;DHT22;1258;48.336;14.322;2023-11-22T13:10:41;2.90;99.90
2495;DHT22;1258;48.336;14.322;2023-11-22T13:13:09;3.00;99.90
2495;DHT22;1258;48.336;14.322;2023-11-22T13:15:36;3.00;99.90
2495;DHT22;1258;48.336;14.322;2023-11-22T13:18:03;3.00;99.90
2495;DHT22;1258;48.336;14.322;2023-11-22T13:20:32;2.90;99.90
2495;DHT22;1258;48.336;14.322;2023-11-22T13:22:59;3.00;99.90
2495;DHT22;1258;48.336;14.322;2023-11-22T13:25:26;2.90;99.90
2495;DHT22;1258;48.336;14.322;2023-11-22T13:27:55;2.80;99.90
2495;DHT22;1258;48.336;14.322;2023-11-22T13:30:23;2.80;99.90
2495;DHT22;1258;48.336;14.322;2023-11-22T13:32:52;2.80;99.90
2495;DHT22;1258;48.336;14.322;2023-11-22T13:35:19;2.70;99.90
2495;DHT22;1258;48.336;14.322;2023-11-22T13:37:48;2.90;99.90
2495;DHT22;1258;48.336;14.322;2023-11-22T13:40:17;2.60;99.90
2495;DHT22;1258;48.336;14.322;2023-11-22T13:42:48;2.70;99.90
2495;DHT22;1258;48.336;14.322;2023-11-22T13:45:17;2.70;99.90
2495;DHT22;1258;48.336;14.322;2023-11-22T13:47:44;2.70;99.90
2495;DHT22;1258;48.336;14.322;2023-11-22T13:50:10;2.70;99.90
2495;DHT22;1258;48.336;14.322;2023-11-22T13:52:39;2.70;99.90
2495;DHT22;1258;48.336;14.322;2023-11-22T13:55:07;2.70;99.90
2495;DHT22;1258;48.336;14.322;2023-11-22T13:57:36;2.80;99.90
2495;DHT22;1258;48.336;14.322;2023-11-22T14:00:04;2.80;99.90
2495;DHT22;1258;48.336;14.322;2023-11-22T14:02:36;2.80;99.90
2495;DHT22;1258;48.336;14.322;2023-11-22T14:05:03;2.80;99.90
2495;DHT22;1258;48.336;14.322;2023-11-22T14:07:34;2.90;99.90
2495;DHT22;1258;48.336;14.322;2023-11-22T14:10:02;2.80;99.90
2495;DHT22;1258;48.336;14.322;2023-11-22T14:12:30;2.80;99.90
2495;DHT22;1258;48.336;14.322;2023-11-22T14:14:57;2.80;99.90
2495;DHT22;1258;48.336;14.322;2023-11-22T14:17:24;2.80;99.90
2495;DHT22;1258;48.336;14.322;2023-11-22T14:19:53;2.90;99.90
2495;DHT22;1258;48.336;14.322;2023-11-22T14:22:21;2.70;99.90
2495;DHT22;1258;48.336;14.322;2023-11-22T14:24:48;2.80;99.90
2495;DHT22;1258;48.336;14.322;2023-11-22T14:27:15;2.60;99.90
2495;DHT22;1258;48.336;14.322;2023-11-22T14:29:43;2.70;99.90
2495;DHT22;1258;48.336;14.322;2023-11-22T14:32:13;2.60;99.90
2495;DHT22;1258;48.336;14.322;2023-11-22T14:34:40;2.60;99.90
2495;DHT22;1258;48.336;14.322;2023-11-22T14:37:10;2.70;99.90
2495;DHT22;1258;48.336;14.322;2023-11-22T14:39:37;2.90;99.90
2495;DHT22;1258;48.336;14.322;2023-11-22T14:42:04;3.00;99.90
2495;DHT22;1258;48.336;14.322;2023-11-22T14:44:33;3.00;99.90
2495;DHT22;1258;48.336;14.322;2023-11-22T14:47:00;3.00;99.90
2495;DHT22;1258;48.336;14.322;2023-11-22T14:49:31;3.10;99.90
2495;DHT22;1258;48.336;14.322;2023-11-22T14:51:58;3.00;99.90
2495;DHT22;1258;48.336;14.322;2023-11-22T14:54:26;2.80;99.90
2495;DHT22;1258;48.336;14.322;2023-11-22T14:56:53;2.90;99.90
2495;DHT22;1258;48.336;14.322;2023-11-22T14:59:21;2.90;99.90
2495;DHT22;1258;48.336;14.322;2023-11-22T15:01:48;2.80;99.90
2495;DHT22;1258;48.336;14.322;2023-11-22T15:04:15;2.60;99.90
2495;DHT22;1258;48.336;14.322;2023-11-22T15:06:42;2.60;99.90
2495;DHT22;1258;48.336;14.322;2023-11-22T15:09:10;2.70;99.90
2495;DHT22;1258;48.336;14.322;2023-11-22T15:11:43;2.70;99.90
2495;DHT22;1258;48.336;14.322;2023-11-22T15:14:10;2.70;99.90
2495;DHT22;1258;48.336;14.322;2023-11-22T15:16:38;2.60;99.90
2495;DHT22;1258;48.336;14.322;2023-11-22T15:19:05;2.60;99.90
2495;DHT22;1258;48.336;14.322;2023-11-22T15:21:32;2.60;99.90
2495;DHT22;1258;48.336;14.322;2023-11-22T15:23:59;2.50;99.90
2495;DHT22;1258;48.336;14.322;2023-11-22T15:26:26;2.60;99.90
2495;DHT22;1258;48.336;14.322;2023-11-22T15:28:54;2.60;99.90
2495;DHT22;1258;48.336;14.322;2023-11-22T15:31:21;2.70;99.90
2495;DHT22;1258;48.336;14.322;2023-11-22T15:33:49;2.70;99.90
2495;DHT22;1258;48.336;14.322;2023-11-22T15:36:16;2.70;99.90
2495;DHT22;1258;48.336;14.322;2023-11-22T15:38:43;2.70;99.90
2495;DHT22;1258;48.336;14.322;2023-11-22T15:41:10;2.50;99.90
2495;DHT22;1258;48.336;14.322;2023-11-22T15:43:39;2.50;99.90
2495;DHT22;1258;48.336;14.322;2023-11-22T15:46:11;2.50;99.90
2495;DHT22;1258;48.336;14.322;2023-11-22T15:48:40;2.70;99.90
2495;DHT22;1258;48.336;14.322;2023-11-22T15:51:09;2.80;99.90
2495;DHT22;1258;48.336;14.322;2023-11-22T15:53:37;2.90;99.90
2495;DHT22;1258;48.336;14.322;2023-11-22T15:56:04;3.00;99.90
2495;DHT22;1258;48.336;14.322;2023-11-22T15:58:33;3.10;99.90
2495;DHT22;1258;48.336;14.322;2023-11-22T16:01:00;3.20;99.90
2495;DHT22;1258;48.336;14.322;2023-11-22T16:03:30;3.30;99.90
2495;DHT22;1258;48.336;14.322;2023-11-22T16:05:58;3.20;99.90
2495;DHT22;1258;48.336;14.322;2023-11-22T16:08:26;3.40;99.90